Keyes, OK (73947)

5:22 AM CST on March 01, 2015 (GMT -0600)
Fort Wiegers | Change Station
CLOSE
Current Station
Personal Weather Station
Location: Elkhart, KS
Elevation: 3554 ft
Nearby Weather Stations
Active Advisory: Freezing Fog Advisory Active Notice: Record Report, Local Storm Report

Elev 3554 ft 37.04 °N, 101.97 °W | Updated 8 seconds ago

Overcast
Overcast
22.9 °F
Feels Like 23 °F
N
1.0
Wind Variable Wind from ENE
Gusts 2.0 mph

Today
High -- | Low -- °F
--% Chance of Precip.
Yesterday
High -- | Low -- °F
Precip. -- in
7:20 AM 6:43 PM
Waxing Gibbous, 84% visible
Pressure 30.20 in
Visibility 8.0 miles
Clouds Overcast 1900 ft
Windchill 23 °F
Dew Point 21 °F
Humidity 92%
Rainfall 0.00 in
Snow Depth Not available.
UV 0 out of 12
Pollen .80 out of 12
Air Quality Not available.
Flu Activity Not available.
METAR KGUY 011053Z AUTO 00000KT 8SM OVC019 M03/M05 A3014 RMK AO2 SLP226 T10281050

More Conditions Fewer Conditions

Pressure 30.20 in
Visibility 8.0 miles
Clouds Overcast 1900 ft
Windchill 23 °F
Dew Point 21 °F
Humidity 92%
Rainfall 0.00 in
Snow Depth Not available.
UV 0 out of 12
Pollen .80 out of 12
Air Quality Not available.
Flu Activity Not available.
METAR KGUY 011053Z AUTO 00000KT 8SM OVC019 M03/M05 A3014 RMK AO2 SLP226 T10281050

More Conditions Fewer Conditions

10-Day Weather Forecast

Almanac

Astronomy

Mar. 01, 2015 Rise Set
Actual Time
Civil Twilight
Nautical Twilight
Astronomical Twilight
Moon
Length of Visible Light
Length of Day
Tomorrow will be .
, % of the Moon is Illuminated

Today's Extremes

State Highs State Lows

Community

WunderPhotos

Upload Photos

1,801,364 photos uploaded!

WunderBlogs® & News

Nearby

Air Quality

  Air Quality AQ Index Pollutant
Not available.

Snow Depth

Station Depth Elevation

Earthquake Activity

City Distance Mag. Time & Date
Minimum magnitude displayed is 2.5.

Coastal Water Temperatures

Place Temperature

Nearby Weather Stations

Freezing Fog Advisory
Statement as of 4:45 AM CST on March 01, 2015

... Freezing fog advisory remains in effect until 10 am CST this
morning...

* event... areas of dense freezing fog with visibilities of one half
mile or less will be found across the western Oklahoma Panhandle
and the southwest half of the Texas Panhandle.

* Timing... through 10 am today.

* Impacts... dense freezing fog may deposit a light coating of ice on
roads and sidewalks. Visibilities will also be reduced to one half mile
or less.

Precautionary/preparedness actions...

A freezing fog advisory means a very light ice accumulation from
predominantly freezing fog is expected. If driving... slow down...
use your low beam headlights... and leave plenty of distance ahead
of you. Also... be alert for ice on bridge decks causing slippery
roads.